sensor_id;sensor_type;location;lat;lon;timestamp;P1;durP1;ratioP1;P2;durP2;ratioP2
10007;SDS011;5043;41.766;26.204;2023-12-20T00:00:57;15.17;;;10.27;;
10007;SDS011;5043;41.766;26.204;2023-12-20T00:03:23;10.47;;;8.67;;
10007;SDS011;5043;41.766;26.204;2023-12-20T00:05:49;14.60;;;9.27;;
10007;SDS011;5043;41.766;26.204;2023-12-20T00:08:15;11.47;;;8.57;;
10007;SDS011;5043;41.766;26.204;2023-12-20T00:10:41;13.53;;;10.23;;
10007;SDS011;5043;41.766;26.204;2023-12-20T00:13:06;13.60;;;10.00;;
10007;SDS011;5043;41.766;26.204;2023-12-20T00:15:33;18.73;;;13.43;;
10007;SDS011;5043;41.766;26.204;2023-12-20T00:17:59;25.23;;;15.77;;
10007;SDS011;5043;41.766;26.204;2023-12-20T00:20:24;18.50;;;13.87;;
10007;SDS011;5043;41.766;26.204;2023-12-20T00:22:50;20.30;;;13.77;;
10007;SDS011;5043;41.766;26.204;2023-12-20T00:25:15;17.13;;;13.17;;
10007;SDS011;5043;41.766;26.204;2023-12-20T00:27:41;20.57;;;13.47;;
10007;SDS011;5043;41.766;26.204;2023-12-20T00:30:06;19.70;;;13.77;;
10007;SDS011;5043;41.766;26.204;2023-12-20T00:32:32;19.93;;;13.87;;
10007;SDS011;5043;41.766;26.204;2023-12-20T00:34:58;20.53;;;13.73;;
10007;SDS011;5043;41.766;26.204;2023-12-20T00:37:23;35.13;;;26.23;;
10007;SDS011;5043;41.766;26.204;2023-12-20T00:39:49;26.87;;;19.73;;
10007;SDS011;5043;41.766;26.204;2023-12-20T00:42:14;26.73;;;18.00;;
10007;SDS011;5043;41.766;26.204;2023-12-20T00:44:40;22.20;;;14.77;;
10007;SDS011;5043;41.766;26.204;2023-12-20T00:47:05;25.00;;;13.43;;
10007;SDS011;5043;41.766;26.204;2023-12-20T00:49:31;27.20;;;14.93;;
10007;SDS011;5043;41.766;26.204;2023-12-20T00:51:56;22.17;;;15.23;;
10007;SDS011;5043;41.766;26.204;2023-12-20T00:54:21;19.47;;;12.37;;
10007;SDS011;5043;41.766;26.204;2023-12-20T00:56:47;17.93;;;12.30;;
10007;SDS011;5043;41.766;26.204;2023-12-20T00:59:12;15.77;;;11.50;;
10007;SDS011;5043;41.766;26.204;2023-12-20T01:01:38;15.63;;;12.13;;
10007;SDS011;5043;41.766;26.204;2023-12-20T01:04:03;31.23;;;26.70;;
10007;SDS011;5043;41.766;26.204;2023-12-20T01:06:29;32.13;;;24.30;;
10007;SDS011;5043;41.766;26.204;2023-12-20T01:08:54;22.77;;;18.10;;
10007;SDS011;5043;41.766;26.204;2023-12-20T01:11:20;22.10;;;16.80;;
10007;SDS011;5043;41.766;26.204;2023-12-20T01:13:45;22.13;;;13.63;;
10007;SDS011;5043;41.766;26.204;2023-12-20T01:16:11;18.53;;;12.63;;
10007;SDS011;5043;41.766;26.204;2023-12-20T01:18:37;18.80;;;12.70;;
10007;SDS011;5043;41.766;26.204;2023-12-20T01:21:03;16.90;;;11.93;;
10007;SDS011;5043;41.766;26.204;2023-12-20T01:23:30;24.23;;;15.73;;
10007;SDS011;5043;41.766;26.204;2023-12-20T01:25:55;19.07;;;12.67;;
10007;SDS011;5043;41.766;26.204;2023-12-20T01:28:21;17.90;;;12.37;;
10007;SDS011;5043;41.766;26.204;2023-12-20T01:30:47;19.13;;;13.10;;
10007;SDS011;5043;41.766;26.204;2023-12-20T01:33:12;18.37;;;11.83;;
10007;SDS011;5043;41.766;26.204;2023-12-20T01:35:38;21.47;;;12.53;;
10007;SDS011;5043;41.766;26.204;2023-12-20T01:38:03;19.63;;;12.93;;
10007;SDS011;5043;41.766;26.204;2023-12-20T01:40:29;24.33;;;14.40;;
10007;SDS011;5043;41.766;26.204;2023-12-20T01:42:58;17.13;;;11.70;;
10007;SDS011;5043;41.766;26.204;2023-12-20T01:45:27;18.17;;;11.83;;
10007;SDS011;5043;41.766;26.204;2023-12-20T01:47:53;15.23;;;11.03;;
10007;SDS011;5043;41.766;26.204;2023-12-20T01:50:20;15.93;;;11.33;;
10007;SDS011;5043;41.766;26.204;2023-12-20T01:52:46;15.90;;;11.23;;
10007;SDS011;5043;41.766;26.204;2023-12-20T01:55:12;20.77;;;11.30;;
10007;SDS011;5043;41.766;26.204;2023-12-20T01:57:43;17.37;;;12.10;;
10007;SDS011;5043;41.766;26.204;2023-12-20T02:00:10;17.63;;;12.87;;
10007;SDS011;5043;41.766;26.204;2023-12-20T02:02:37;20.13;;;15.30;;
10007;SDS011;5043;41.766;26.204;2023-12-20T02:05:06;19.50;;;13.77;;
10007;SDS011;5043;41.766;26.204;2023-12-20T02:07:33;16.67;;;12.47;;
10007;SDS011;5043;41.766;26.204;2023-12-20T02:10:00;21.87;;;17.30;;
10007;SDS011;5043;41.766;26.204;2023-12-20T02:12:27;22.10;;;15.70;;
10007;SDS011;5043;41.766;26.204;2023-12-20T02:14:52;24.37;;;17.63;;
10007;SDS011;5043;41.766;26.204;2023-12-20T02:17:19;24.53;;;17.83;;
10007;SDS011;5043;41.766;26.204;2023-12-20T02:19:45;25.07;;;16.67;;
10007;SDS011;5043;41.766;26.204;2023-12-20T02:22:10;23.60;;;16.13;;
10007;SDS011;5043;41.766;26.204;2023-12-20T02:24:36;20.30;;;14.10;;
10007;SDS011;5043;41.766;26.204;2023-12-20T02:27:02;18.53;;;12.90;;
10007;SDS011;5043;41.766;26.204;2023-12-20T02:29:28;18.70;;;13.00;;
10007;SDS011;5043;41.766;26.204;2023-12-20T02:31:54;21.37;;;14.57;;
10007;SDS011;5043;41.766;26.204;2023-12-20T02:34:19;20.53;;;12.97;;
10007;SDS011;5043;41.766;26.204;2023-12-20T02:36:44;19.37;;;12.53;;
10007;SDS011;5043;41.766;26.204;2023-12-20T02:39:10;21.10;;;12.87;;
10007;SDS011;5043;41.766;26.204;2023-12-20T02:41:35;26.03;;;14.77;;
10007;SDS011;5043;41.766;26.204;2023-12-20T02:44:01;29.83;;;18.70;;
10007;SDS011;5043;41.766;26.204;2023-12-20T02:46:27;25.87;;;17.47;;
10007;SDS011;5043;41.766;26.204;2023-12-20T02:48:52;31.97;;;22.53;;
10007;SDS011;5043;41.766;26.204;2023-12-20T02:51:18;36.87;;;31.30;;
10007;SDS011;5043;41.766;26.204;2023-12-20T02:53:43;31.07;;;22.63;;
10007;SDS011;5043;41.766;26.204;2023-12-20T02:56:09;29.57;;;17.33;;
10007;SDS011;5043;41.766;26.204;2023-12-20T02:58:34;38.37;;;19.13;;
10007;SDS011;5043;41.766;26.204;2023-12-20T03:01:00;26.00;;;15.83;;
10007;SDS011;5043;41.766;26.204;2023-12-20T03:03:25;44.60;;;20.40;;
10007;SDS011;5043;41.766;26.204;2023-12-20T03:05:51;40.60;;;22.10;;
10007;SDS011;5043;41.766;26.204;2023-12-20T03:08:16;40.40;;;21.77;;
10007;SDS011;5043;41.766;26.204;2023-12-20T03:10:42;54.93;;;26.40;;
10007;SDS011;5043;41.766;26.204;2023-12-20T03:13:07;55.13;;;27.40;;
10007;SDS011;5043;41.766;26.204;2023-12-20T03:15:33;37.60;;;22.67;;
10007;SDS011;5043;41.766;26.204;2023-12-20T03:17:58;43.77;;;22.97;;
10007;SDS011;5043;41.766;26.204;2023-12-20T03:20:24;36.70;;;20.97;;
10007;SDS011;5043;41.766;26.204;2023-12-20T03:22:51;24.27;;;15.30;;
10007;SDS011;5043;41.766;26.204;2023-12-20T03:25:16;19.80;;;13.30;;
10007;SDS011;5043;41.766;26.204;2023-12-20T03:27:42;17.47;;;11.77;;
10007;SDS011;5043;41.766;26.204;2023-12-20T03:30:07;17.13;;;10.93;;
10007;SDS011;5043;41.766;26.204;2023-12-20T03:32:34;17.30;;;11.90;;
10007;SDS011;5043;41.766;26.204;2023-12-20T03:34:59;16.33;;;10.10;;
10007;SDS011;5043;41.766;26.204;2023-12-20T03:37:24;21.10;;;12.47;;
10007;SDS011;5043;41.766;26.204;2023-12-20T03:39:50;17.30;;;13.03;;
10007;SDS011;5043;41.766;26.204;2023-12-20T03:42:15;28.53;;;22.33;;
10007;SDS011;5043;41.766;26.204;2023-12-20T03:44:41;28.47;;;17.90;;
10007;SDS011;5043;41.766;26.204;2023-12-20T03:47:06;26.57;;;15.47;;
10007;SDS011;5043;41.766;26.204;2023-12-20T03:49:32;25.10;;;17.10;;
10007;SDS011;5043;41.766;26.204;2023-12-20T03:51:58;25.57;;;16.83;;
10007;SDS011;5043;41.766;26.204;2023-12-20T03:54:24;26.10;;;16.57;;
10007;SDS011;5043;41.766;26.204;2023-12-20T03:56:49;27.40;;;16.30;;
10007;SDS011;5043;41.766;26.204;2023-12-20T03:59:15;28.10;;;14.43;;
10007;SDS011;5043;41.766;26.204;2023-12-20T04:01:44;21.17;;;12.87;;
10007;SDS011;5043;41.766;26.204;2023-12-20T04:04:10;19.57;;;13.20;;
10007;SDS011;5043;41.766;26.204;2023-12-20T04:06:36;23.23;;;13.73;;
10007;SDS011;5043;41.766;26.204;2023-12-20T04:09:01;26.83;;;16.27;;
10007;SDS011;5043;41.766;26.204;2023-12-20T04:11:28;22.77;;;15.50;;
10007;SDS011;5043;41.766;26.204;2023-12-20T04:13:53;24.57;;;15.60;;
10007;SDS011;5043;41.766;26.204;2023-12-20T04:16:19;26.33;;;17.73;;
10007;SDS011;5043;41.766;26.204;2023-12-20T04:18:44;25.00;;;16.33;;
10007;SDS011;5043;41.766;26.204;2023-12-20T04:21:10;27.80;;;15.47;;
10007;SDS011;5043;41.766;26.204;2023-12-20T04:23:35;46.70;;;22.80;;
10007;SDS011;5043;41.766;26.204;2023-12-20T04:26:01;83.37;;;31.10;;
10007;SDS011;5043;41.766;26.204;2023-12-20T04:28:27;77.07;;;29.03;;
10007;SDS011;5043;41.766;26.204;2023-12-20T04:30:55;69.30;;;30.30;;
10007;SDS011;5043;41.766;26.204;2023-12-20T04:33:21;49.40;;;24.93;;
10007;SDS011;5043;41.766;26.204;2023-12-20T04:35:47;37.77;;;20.63;;
10007;SDS011;5043;41.766;26.204;2023-12-20T04:38:12;38.90;;;25.03;;
10007;SDS011;5043;41.766;26.204;2023-12-20T04:40:37;41.70;;;28.27;;
10007;SDS011;5043;41.766;26.204;2023-12-20T04:43:05;35.17;;;19.73;;
10007;SDS011;5043;41.766;26.204;2023-12-20T04:45:30;33.23;;;20.57;;
10007;SDS011;5043;41.766;26.204;2023-12-20T04:47:56;28.80;;;17.37;;
10007;SDS011;5043;41.766;26.204;2023-12-20T04:50:21;26.83;;;17.17;;
10007;SDS011;5043;41.766;26.204;2023-12-20T04:52:47;22.13;;;15.20;;
10007;SDS011;5043;41.766;26.204;2023-12-20T04:55:12;19.73;;;14.47;;
10007;SDS011;5043;41.766;26.204;2023-12-20T04:57:38;23.13;;;14.57;;
10007;SDS011;5043;41.766;26.204;2023-12-20T05:00:04;27.73;;;18.23;;
10007;SDS011;5043;41.766;26.204;2023-12-20T05:02:30;37.77;;;24.67;;
10007;SDS011;5043;41.766;26.204;2023-12-20T05:04:56;45.47;;;33.07;;
10007;SDS011;5043;41.766;26.204;2023-12-20T05:07:21;44.40;;;31.30;;
10007;SDS011;5043;41.766;26.204;2023-12-20T05:09:47;38.37;;;29.17;;
10007;SDS011;5043;41.766;26.204;2023-12-20T05:12:12;38.40;;;26.13;;
10007;SDS011;5043;41.766;26.204;2023-12-20T05:14:38;40.63;;;26.73;;
10007;SDS011;5043;41.766;26.204;2023-12-20T05:17:03;36.87;;;23.13;;
10007;SDS011;5043;41.766;26.204;2023-12-20T05:19:29;33.63;;;21.67;;
10007;SDS011;5043;41.766;26.204;2023-12-20T05:21:54;30.80;;;20.97;;
10007;SDS011;5043;41.766;26.204;2023-12-20T05:24:20;32.73;;;20.93;;
10007;SDS011;5043;41.766;26.204;2023-12-20T05:26:45;29.50;;;18.90;;
10007;SDS011;5043;41.766;26.204;2023-12-20T05:29:11;29.90;;;20.07;;
10007;SDS011;5043;41.766;26.204;2023-12-20T05:31:36;31.90;;;24.67;;
10007;SDS011;5043;41.766;26.204;2023-12-20T05:34:02;31.07;;;24.80;;
10007;SDS011;5043;41.766;26.204;2023-12-20T05:36:27;32.97;;;25.20;;
10007;SDS011;5043;41.766;26.204;2023-12-20T05:38:53;27.10;;;21.63;;
10007;SDS011;5043;41.766;26.204;2023-12-20T05:41:18;29.27;;;19.83;;
10007;SDS011;5043;41.766;26.204;2023-12-20T05:43:44;22.63;;;17.33;;
10007;SDS011;5043;41.766;26.204;2023-12-20T05:46:10;23.10;;;15.23;;
10007;SDS011;5043;41.766;26.204;2023-12-20T05:48:37;21.43;;;15.47;;
10007;SDS011;5043;41.766;26.204;2023-12-20T05:51:02;30.37;;;22.10;;
10007;SDS011;5043;41.766;26.204;2023-12-20T05:53:28;28.93;;;21.73;;
10007;SDS011;5043;41.766;26.204;2023-12-20T05:55:53;48.40;;;31.30;;
10007;SDS011;5043;41.766;26.204;2023-12-20T05:58:19;55.97;;;37.20;;
10007;SDS011;5043;41.766;26.204;2023-12-20T06:00:44;54.17;;;35.43;;
10007;SDS011;5043;41.766;26.204;2023-12-20T06:03:09;48.63;;;34.53;;
10007;SDS011;5043;41.766;26.204;2023-12-20T06:05:35;58.60;;;38.73;;
10007;SDS011;5043;41.766;26.204;2023-12-20T06:08:00;55.40;;;36.07;;
10007;SDS011;5043;41.766;26.204;2023-12-20T06:10:28;45.40;;;27.30;;
10007;SDS011;5043;41.766;26.204;2023-12-20T06:12:53;64.33;;;39.57;;
10007;SDS011;5043;41.766;26.204;2023-12-20T06:15:20;75.50;;;42.23;;
10007;SDS011;5043;41.766;26.204;2023-12-20T06:17:45;101.20;;;60.43;;
10007;SDS011;5043;41.766;26.204;2023-12-20T06:20:11;185.10;;;112.17;;
10007;SDS011;5043;41.766;26.204;2023-12-20T06:22:38;126.67;;;79.43;;
10007;SDS011;5043;41.766;26.204;2023-12-20T06:25:04;124.70;;;72.43;;
10007;SDS011;5043;41.766;26.204;2023-12-20T06:27:29;106.53;;;61.13;;
10007;SDS011;5043;41.766;26.204;2023-12-20T06:29:57;57.07;;;37.60;;
10007;SDS011;5043;41.766;26.204;2023-12-20T06:32:23;56.47;;;35.00;;
10007;SDS011;5043;41.766;26.204;2023-12-20T06:34:49;46.57;;;29.87;;
10007;SDS011;5043;41.766;26.204;2023-12-20T06:37:15;33.17;;;22.40;;
10007;SDS011;5043;41.766;26.204;2023-12-20T06:39:40;49.77;;;29.90;;
10007;SDS011;5043;41.766;26.204;2023-12-20T06:42:06;34.40;;;22.43;;
10007;SDS011;5043;41.766;26.204;2023-12-20T06:44:31;22.40;;;15.90;;
10007;SDS011;5043;41.766;26.204;2023-12-20T06:46:57;21.07;;;14.90;;
10007;SDS011;5043;41.766;26.204;2023-12-20T06:49:23;23.07;;;15.67;;
10007;SDS011;5043;41.766;26.204;2023-12-20T06:51:48;27.47;;;16.57;;
10007;SDS011;5043;41.766;26.204;2023-12-20T06:54:14;26.07;;;18.00;;
10007;SDS011;5043;41.766;26.204;2023-12-20T06:56:39;30.77;;;18.97;;
10007;SDS011;5043;41.766;26.204;2023-12-20T06:59:06;28.33;;;16.93;;
10007;SDS011;5043;41.766;26.204;2023-12-20T07:01:31;33.03;;;18.33;;
10007;SDS011;5043;41.766;26.204;2023-12-20T07:03:57;32.63;;;17.60;;
10007;SDS011;5043;41.766;26.204;2023-12-20T07:06:22;26.63;;;15.17;;
10007;SDS011;5043;41.766;26.204;2023-12-20T07:08:48;32.37;;;16.47;;
10007;SDS011;5043;41.766;26.204;2023-12-20T07:11:14;32.07;;;18.60;;
10007;SDS011;5043;41.766;26.204;2023-12-20T07:13:40;30.27;;;18.00;;
10007;SDS011;5043;41.766;26.204;2023-12-20T07:16:05;37.87;;;26.00;;
10007;SDS011;5043;41.766;26.204;2023-12-20T07:18:31;44.03;;;25.30;;
10007;SDS011;5043;41.766;26.204;2023-12-20T07:20:56;29.63;;;20.90;;
10007;SDS011;5043;41.766;26.204;2023-12-20T07:23:22;29.73;;;19.67;;
10007;SDS011;5043;41.766;26.204;2023-12-20T07:25:47;31.40;;;19.97;;
10007;SDS011;5043;41.766;26.204;2023-12-20T07:28:13;32.87;;;21.47;;
10007;SDS011;5043;41.766;26.204;2023-12-20T07:30:39;29.40;;;19.80;;
10007;SDS011;5043;41.766;26.204;2023-12-20T07:33:04;40.00;;;20.83;;
10007;SDS011;5043;41.766;26.204;2023-12-20T07:35:30;33.67;;;21.53;;
10007;SDS011;5043;41.766;26.204;2023-12-20T07:37:55;26.07;;;19.30;;
10007;SDS011;5043;41.766;26.204;2023-12-20T07:40:23;28.87;;;19.70;;
10007;SDS011;5043;41.766;26.204;2023-12-20T07:42:49;29.80;;;20.67;;
10007;SDS011;5043;41.766;26.204;2023-12-20T07:45:15;44.67;;;28.67;;
10007;SDS011;5043;41.766;26.204;2023-12-20T07:47:40;33.80;;;24.00;;
10007;SDS011;5043;41.766;26.204;2023-12-20T07:50:06;30.97;;;23.33;;
10007;SDS011;5043;41.766;26.204;2023-12-20T07:52:32;30.93;;;22.03;;
10007;SDS011;5043;41.766;26.204;2023-12-20T07:54:57;24.50;;;19.40;;
10007;SDS011;5043;41.766;26.204;2023-12-20T07:57:23;34.30;;;21.73;;
10007;SDS011;5043;41.766;26.204;2023-12-20T07:59:49;28.33;;;21.30;;
10007;SDS011;5043;41.766;26.204;2023-12-20T08:02:14;32.03;;;19.67;;
10007;SDS011;5043;41.766;26.204;2023-12-20T08:04:40;32.47;;;21.60;;
10007;SDS011;5043;41.766;26.204;2023-12-20T08:07:06;24.53;;;18.97;;
10007;SDS011;5043;41.766;26.204;2023-12-20T08:09:32;26.70;;;18.40;;
10007;SDS011;5043;41.766;26.204;2023-12-20T08:11:58;23.00;;;17.40;;
10007;SDS011;5043;41.766;26.204;2023-12-20T08:14:25;25.20;;;19.67;;
10007;SDS011;5043;41.766;26.204;2023-12-20T08:16:50;24.13;;;17.80;;
10007;SDS011;5043;41.766;26.204;2023-12-20T08:19:16;30.67;;;19.23;;
10007;SDS011;5043;41.766;26.204;2023-12-20T08:21:42;26.80;;;20.80;;
10007;SDS011;5043;41.766;26.204;2023-12-20T08:24:07;27.37;;;20.07;;
10007;SDS011;5043;41.766;26.204;2023-12-20T08:26:33;34.10;;;22.40;;
10007;SDS011;5043;41.766;26.204;2023-12-20T08:28:59;33.97;;;21.40;;
10007;SDS011;5043;41.766;26.204;2023-12-20T08:31:24;31.50;;;21.27;;
10007;SDS011;5043;41.766;26.204;2023-12-20T08:33:51;27.67;;;19.97;;
10007;SDS011;5043;41.766;26.204;2023-12-20T08:36:19;36.22;;;21.23;;
10007;SDS011;5043;41.766;26.204;2023-12-20T08:38:46;29.25;;;21.40;;
10007;SDS011;5043;41.766;26.204;2023-12-20T08:41:12;29.63;;;21.60;;
10007;SDS011;5043;41.766;26.204;2023-12-20T08:43:38;28.13;;;20.95;;
10007;SDS011;5043;41.766;26.204;2023-12-20T08:46:06;42.15;;;21.52;;
10007;SDS011;5043;41.766;26.204;2023-12-20T08:48:34;36.78;;;23.67;;
10007;SDS011;5043;41.766;26.204;2023-12-20T08:51:00;47.22;;;31.90;;
10007;SDS011;5043;41.766;26.204;2023-12-20T08:53:26;36.72;;;29.25;;
10007;SDS011;5043;41.766;26.204;2023-12-20T08:55:52;37.63;;;27.52;;
10007;SDS011;5043;41.766;26.204;2023-12-20T08:58:17;33.88;;;24.98;;
10007;SDS011;5043;41.766;26.204;2023-12-20T09:00:43;28.40;;;22.42;;
10007;SDS011;5043;41.766;26.204;2023-12-20T09:03:09;27.23;;;21.60;;
10007;SDS011;5043;41.766;26.204;2023-12-20T09:05:34;31.00;;;21.98;;
10007;SDS011;5043;41.766;26.204;2023-12-20T09:08:00;28.85;;;19.55;;
10007;SDS011;5043;41.766;26.204;2023-12-20T09:10:26;25.08;;;19.33;;
10007;SDS011;5043;41.766;26.204;2023-12-20T09:12:51;22.77;;;17.48;;
10007;SDS011;5043;41.766;26.204;2023-12-20T09:15:25;25.88;;;18.05;;
10007;SDS011;5043;41.766;26.204;2023-12-20T09:17:52;22.27;;;15.88;;
10007;SDS011;5043;41.766;26.204;2023-12-20T09:20:19;26.67;;;18.83;;
10007;SDS011;5043;41.766;26.204;2023-12-20T09:22:45;21.85;;;17.33;;
10007;SDS011;5043;41.766;26.204;2023-12-20T09:25:11;23.63;;;17.80;;
10007;SDS011;5043;41.766;26.204;2023-12-20T09:27:39;21.63;;;16.88;;
10007;SDS011;5043;41.766;26.204;2023-12-20T09:30:06;24.52;;;18.50;;
10007;SDS011;5043;41.766;26.204;2023-12-20T09:32:32;22.13;;;16.73;;
10007;SDS011;5043;41.766;26.204;2023-12-20T09:34:58;19.33;;;15.85;;
10007;SDS011;5043;41.766;26.204;2023-12-20T09:37:26;19.60;;;15.02;;
10007;SDS011;5043;41.766;26.204;2023-12-20T09:39:52;18.92;;;16.27;;
10007;SDS011;5043;41.766;26.204;2023-12-20T09:42:21;17.17;;;14.02;;
10007;SDS011;5043;41.766;26.204;2023-12-20T09:44:54;18.90;;;13.75;;
10007;SDS011;5043;41.766;26.204;2023-12-20T09:47:22;21.92;;;17.42;;
10007;SDS011;5043;41.766;26.204;2023-12-20T09:49:49;22.38;;;16.50;;
10007;SDS011;5043;41.766;26.204;2023-12-20T09:52:17;16.13;;;13.80;;
10007;SDS011;5043;41.766;26.204;2023-12-20T09:54:43;15.10;;;13.50;;
10007;SDS011;5043;41.766;26.204;2023-12-20T09:57:10;15.07;;;13.48;;
10007;SDS011;5043;41.766;26.204;2023-12-20T09:59:36;16.42;;;12.80;;
10007;SDS011;5043;41.766;26.204;2023-12-20T10:02:02;17.20;;;13.25;;
10007;SDS011;5043;41.766;26.204;2023-12-20T10:04:34;14.95;;;13.40;;
10007;SDS011;5043;41.766;26.204;2023-12-20T10:07:03;14.40;;;12.88;;
10007;SDS011;5043;41.766;26.204;2023-12-20T10:09:29;14.15;;;12.65;;
10007;SDS011;5043;41.766;26.204;2023-12-20T10:11:57;14.95;;;13.20;;
10007;SDS011;5043;41.766;26.204;2023-12-20T10:14:23;18.10;;;14.10;;
10007;SDS011;5043;41.766;26.204;2023-12-20T10:16:49;17.63;;;14.63;;
10007;SDS011;5043;41.766;26.204;2023-12-20T10:19:19;14.10;;;12.60;;
10007;SDS011;5043;41.766;26.204;2023-12-20T10:21:45;16.45;;;13.90;;
10007;SDS011;5043;41.766;26.204;2023-12-20T10:24:11;15.95;;;13.00;;
10007;SDS011;5043;41.766;26.204;2023-12-20T10:26:42;14.60;;;12.30;;
10007;SDS011;5043;41.766;26.204;2023-12-20T10:29:08;15.43;;;13.52;;
10007;SDS011;5043;41.766;26.204;2023-12-20T10:31:35;14.38;;;12.85;;
10007;SDS011;5043;41.766;26.204;2023-12-20T10:34:02;20.30;;;15.88;;
10007;SDS011;5043;41.766;26.204;2023-12-20T10:36:29;26.98;;;21.92;;
10007;SDS011;5043;41.766;26.204;2023-12-20T10:38:56;23.55;;;19.00;;
10007;SDS011;5043;41.766;26.204;2023-12-20T10:41:26;20.90;;;16.05;;
10007;SDS011;5043;41.766;26.204;2023-12-20T10:44:03;36.28;;;24.40;;
10007;SDS011;5043;41.766;26.204;2023-12-20T10:46:33;19.50;;;16.95;;
10007;SDS011;5043;41.766;26.204;2023-12-20T10:49:02;18.13;;;15.07;;
10007;SDS011;5043;41.766;26.204;2023-12-20T10:51:28;23.27;;;16.75;;
10007;SDS011;5043;41.766;26.204;2023-12-20T10:53:57;16.77;;;14.27;;
10007;SDS011;5043;41.766;26.204;2023-12-20T10:56:22;18.13;;;15.10;;
10007;SDS011;5043;41.766;26.204;2023-12-20T10:58:49;21.48;;;18.95;;
10007;SDS011;5043;41.766;26.204;2023-12-20T11:01:18;17.58;;;15.75;;
10007;SDS011;5043;41.766;26.204;2023-12-20T11:03:54;16.35;;;14.65;;
10007;SDS011;5043;41.766;26.204;2023-12-20T11:06:27;15.43;;;13.82;;
10007;SDS011;5043;41.766;26.204;2023-12-20T11:17:08;19.75;;;16.95;;
10007;SDS011;5043;41.766;26.204;2023-12-20T11:19:42;18.55;;;14.98;;
10007;SDS011;5043;41.766;26.204;2023-12-20T11:22:22;17.10;;;15.15;;
10007;SDS011;5043;41.766;26.204;2023-12-20T11:24:50;20.45;;;16.92;;
10007;SDS011;5043;41.766;26.204;2023-12-20T11:27:17;23.40;;;18.27;;
10007;SDS011;5043;41.766;26.204;2023-12-20T11:29:57;22.25;;;19.50;;
10007;SDS011;5043;41.766;26.204;2023-12-20T11:34:55;27.33;;;17.83;;
10007;SDS011;5043;41.766;26.204;2023-12-20T11:37:29;21.75;;;17.58;;
10007;SDS011;5043;41.766;26.204;2023-12-20T11:40:02;21.77;;;17.20;;
10007;SDS011;5043;41.766;26.204;2023-12-20T11:42:37;38.08;;;20.85;;
10007;SDS011;5043;41.766;26.204;2023-12-20T11:45:04;21.08;;;16.40;;
10007;SDS011;5043;41.766;26.204;2023-12-20T11:47:31;23.80;;;18.08;;
10007;SDS011;5043;41.766;26.204;2023-12-20T11:49:57;18.80;;;16.80;;
10007;SDS011;5043;41.766;26.204;2023-12-20T11:52:23;28.85;;;18.48;;
10007;SDS011;5043;41.766;26.204;2023-12-20T11:54:48;23.27;;;18.70;;
10007;SDS011;5043;41.766;26.204;2023-12-20T11:57:13;21.63;;;16.63;;
10007;SDS011;5043;41.766;26.204;2023-12-20T11:59:39;20.02;;;15.93;;
10007;SDS011;5043;41.766;26.204;2023-12-20T12:02:05;21.92;;;17.48;;
10007;SDS011;5043;41.766;26.204;2023-12-20T12:04:30;24.40;;;19.73;;
10007;SDS011;5043;41.766;26.204;2023-12-20T12:06:56;25.88;;;20.98;;
10007;SDS011;5043;41.766;26.204;2023-12-20T12:09:21;24.75;;;20.55;;
10007;SDS011;5043;41.766;26.204;2023-12-20T12:11:47;28.77;;;22.65;;
10007;SDS011;5043;41.766;26.204;2023-12-20T12:14:13;27.42;;;22.13;;
10007;SDS011;5043;41.766;26.204;2023-12-20T12:16:41;33.60;;;22.25;;
10007;SDS011;5043;41.766;26.204;2023-12-20T12:19:07;28.83;;;24.40;;
10007;SDS011;5043;41.766;26.204;2023-12-20T12:21:44;34.28;;;23.75;;
10007;SDS011;5043;41.766;26.204;2023-12-20T12:24:10;31.67;;;23.50;;
10007;SDS011;5043;41.766;26.204;2023-12-20T12:26:36;30.95;;;23.38;;
10007;SDS011;5043;41.766;26.204;2023-12-20T12:29:01;34.80;;;26.98;;
10007;SDS011;5043;41.766;26.204;2023-12-20T12:31:27;32.92;;;22.85;;
10007;SDS011;5043;41.766;26.204;2023-12-20T12:33:53;28.85;;;22.10;;
10007;SDS011;5043;41.766;26.204;2023-12-20T12:36:18;36.75;;;28.80;;
10007;SDS011;5043;41.766;26.204;2023-12-20T12:38:44;38.90;;;27.52;;
10007;SDS011;5043;41.766;26.204;2023-12-20T12:41:12;30.23;;;23.95;;
10007;SDS011;5043;41.766;26.204;2023-12-20T12:43:38;34.03;;;25.50;;
10007;SDS011;5043;41.766;26.204;2023-12-20T12:46:03;46.92;;;31.13;;
10007;SDS011;5043;41.766;26.204;2023-12-20T12:48:29;39.03;;;28.23;;
10007;SDS011;5043;41.766;26.204;2023-12-20T12:50:54;39.67;;;27.65;;
10007;SDS011;5043;41.766;26.204;2023-12-20T12:53:24;33.58;;;26.38;;
10007;SDS011;5043;41.766;26.204;2023-12-20T12:55:50;38.50;;;24.08;;
10007;SDS011;5043;41.766;26.204;2023-12-20T12:58:16;34.53;;;26.88;;
10007;SDS011;5043;41.766;26.204;2023-12-20T13:00:41;37.15;;;26.13;;
10007;SDS011;5043;41.766;26.204;2023-12-20T13:03:07;38.45;;;28.00;;
10007;SDS011;5043;41.766;26.204;2023-12-20T13:05:33;36.90;;;24.33;;
10007;SDS011;5043;41.766;26.204;2023-12-20T13:07:59;41.08;;;25.75;;
10007;SDS011;5043;41.766;26.204;2023-12-20T13:10:24;44.35;;;29.00;;
10007;SDS011;5043;41.766;26.204;2023-12-20T13:12:50;52.38;;;30.63;;
10007;SDS011;5043;41.766;26.204;2023-12-20T13:15:15;44.53;;;29.90;;
10007;SDS011;5043;41.766;26.204;2023-12-20T13:17:41;42.70;;;28.20;;
10007;SDS011;5043;41.766;26.204;2023-12-20T13:20:07;46.92;;;29.38;;
10007;SDS011;5043;41.766;26.204;2023-12-20T13:22:33;40.00;;;27.30;;
10007;SDS011;5043;41.766;26.204;2023-12-20T13:24:58;43.00;;;26.98;;
10007;SDS011;5043;41.766;26.204;2023-12-20T13:27:24;36.78;;;25.95;;
10007;SDS011;5043;41.766;26.204;2023-12-20T13:29:49;39.83;;;26.30;;
10007;SDS011;5043;41.766;26.204;2023-12-20T13:32:15;57.00;;;33.78;;
10007;SDS011;5043;41.766;26.204;2023-12-20T13:34:40;54.22;;;34.15;;
10007;SDS011;5043;41.766;26.204;2023-12-20T13:37:06;41.08;;;27.05;;
10007;SDS011;5043;41.766;26.204;2023-12-20T13:39:33;41.88;;;27.45;;
10007;SDS011;5043;41.766;26.204;2023-12-20T13:41:59;39.75;;;24.52;;
10007;SDS011;5043;41.766;26.204;2023-12-20T13:44:25;39.00;;;26.33;;
10007;SDS011;5043;41.766;26.204;2023-12-20T13:46:50;36.88;;;24.17;;
10007;SDS011;5043;41.766;26.204;2023-12-20T13:49:16;37.70;;;25.08;;
10007;SDS011;5043;41.766;26.204;2023-12-20T13:51:41;35.47;;;23.23;;
10007;SDS011;5043;41.766;26.204;2023-12-20T13:54:07;33.67;;;22.85;;
10007;SDS011;5043;41.766;26.204;2023-12-20T13:56:33;33.45;;;24.15;;
10007;SDS011;5043;41.766;26.204;2023-12-20T13:58:59;35.83;;;24.60;;
10007;SDS011;5043;41.766;26.204;2023-12-20T14:01:25;39.30;;;26.20;;
10007;SDS011;5043;41.766;26.204;2023-12-20T14:03:51;39.97;;;23.92;;
10007;SDS011;5043;41.766;26.204;2023-12-20T14:06:17;36.42;;;24.00;;
10007;SDS011;5043;41.766;26.204;2023-12-20T14:08:43;35.05;;;23.25;;
10007;SDS011;5043;41.766;26.204;2023-12-20T14:11:09;29.02;;;21.85;;
10007;SDS011;5043;41.766;26.204;2023-12-20T14:13:35;39.50;;;23.65;;
10007;SDS011;5043;41.766;26.204;2023-12-20T14:16:01;38.42;;;25.65;;
10007;SDS011;5043;41.766;26.204;2023-12-20T14:18:29;44.58;;;29.02;;
10007;SDS011;5043;41.766;26.204;2023-12-20T14:20:55;35.17;;;25.77;;
10007;SDS011;5043;41.766;26.204;2023-12-20T14:23:21;43.58;;;27.98;;
10007;SDS011;5043;41.766;26.204;2023-12-20T14:25:48;40.30;;;28.98;;